createdAt,value
2019-02-03T00:00:20.984Z,1021.35
2019-02-03T00:01:20.865Z,1021.31
2019-02-03T00:02:20.849Z,1021.29
2019-02-03T00:03:20.834Z,1021.25
2019-02-03T00:04:20.819Z,1021.22
2019-02-03T00:05:20.803Z,1021.27
2019-02-03T00:06:20.789Z,1021.19
2019-02-03T00:07:20.772Z,1021.17
2019-02-03T00:08:20.760Z,1021.16
2019-02-03T00:09:20.741Z,1021.1
2019-02-03T00:10:20.727Z,1021.05
2019-02-03T00:11:20.712Z,1021.05
2019-02-03T00:12:20.698Z,1021.06
2019-02-03T00:13:20.681Z,1021.05
2019-02-03T00:14:20.667Z,1021.06
2019-02-03T00:15:20.653Z,1021.08
2019-02-03T00:16:20.636Z,1021.12
2019-02-03T00:17:20.621Z,1021.12
2019-02-03T00:18:20.607Z,1021.11
2019-02-03T00:19:20.590Z,1021.13
2019-02-03T00:20:20.574Z,1021.1
2019-02-03T00:21:20.560Z,1021.1
2019-02-03T00:22:20.544Z,1021.09
2019-02-03T00:23:20.530Z,1021.08
2019-02-03T00:24:20.514Z,1021.11
2019-02-03T00:25:20.499Z,1021.07
2019-02-03T00:26:20.486Z,1021.1
2019-02-03T00:27:20.469Z,1021.04
2019-02-03T00:28:20.454Z,1021.09
2019-02-03T00:29:20.440Z,1021.12
2019-02-03T00:30:20.434Z,1021.11
2019-02-03T00:31:20.407Z,1021.17
2019-02-03T00:32:20.392Z,1021.14
2019-02-03T00:33:20.379Z,1021.14
2019-02-03T00:34:20.363Z,1021.17
2019-02-03T00:35:20.348Z,1021.18
2019-02-03T00:36:20.334Z,1021.2
2019-02-03T00:37:20.319Z,1021.24
2019-02-03T00:38:23.799Z,1021.2
2019-02-03T00:39:20.303Z,1021.23
2019-02-03T00:40:20.272Z,1021.18
2019-02-03T00:41:20.263Z,1021.15
2019-02-03T00:42:20.243Z,1021.19
2019-02-03T00:43:20.228Z,1021.21
2019-02-03T00:44:20.213Z,1021.23
2019-02-03T00:45:20.198Z,1021.24
2019-02-03T00:46:20.182Z,1021.25
2019-02-03T00:47:20.167Z,1021.28
2019-02-03T00:48:20.153Z,1021.26
2019-02-03T00:49:20.144Z,1021.24
2019-02-03T00:50:20.122Z,1021.23
2019-02-03T00:51:20.118Z,1021.22
2019-02-03T00:52:20.092Z,1021.19
2019-02-03T00:53:20.077Z,1021.13
2019-02-03T00:54:20.062Z,1021.14
2019-02-03T00:55:20.047Z,1021.13
2019-02-03T00:56:20.032Z,1021.12
2019-02-03T00:57:20.016Z,1021.13
2019-02-03T00:58:20.002Z,1021.1
2019-02-03T00:59:19.985Z,1021.08
2019-02-03T01:00:19.969Z,1021.08
2019-02-03T01:01:19.955Z,1021.06
2019-02-03T01:02:19.939Z,1021.09
2019-02-03T01:03:19.926Z,1021.09
2019-02-03T01:04:19.909Z,1021.12
2019-02-03T01:05:19.895Z,1021.14
2019-02-03T01:06:19.880Z,1021.16
2019-02-03T01:07:27.069Z,1021.13
2019-02-03T01:08:19.850Z,1021.18
2019-02-03T01:09:19.836Z,1021.22
2019-02-03T01:10:19.821Z,1021.21
2019-02-03T01:11:19.804Z,1021.28
2019-02-03T01:12:19.789Z,1021.24
2019-02-03T01:13:19.775Z,1021.3
2019-02-03T01:14:19.761Z,1021.3
2019-02-03T01:15:19.745Z,1021.27
2019-02-03T01:16:19.733Z,1021.28
2019-02-03T01:17:19.716Z,1021.32
2019-02-03T01:18:19.700Z,1021.32
2019-02-03T01:19:19.685Z,1021.34
2019-02-03T01:20:19.671Z,1021.37
2019-02-03T01:21:19.656Z,1021.38
2019-02-03T01:22:19.640Z,1021.33
2019-02-03T01:23:19.625Z,1021.37
2019-02-03T01:24:19.610Z,1021.37
2019-02-03T01:25:19.596Z,1021.39
2019-02-03T01:26:19.584Z,1021.36
2019-02-03T01:27:19.565Z,1021.35
2019-02-03T01:28:19.551Z,1021.33
2019-02-03T01:29:19.616Z,1021.28
2019-02-03T01:30:19.521Z,1021.23
2019-02-03T01:31:19.506Z,1021.23
2019-02-03T01:32:19.494Z,1021.27
2019-02-03T01:33:19.480Z,1021.3
2019-02-03T01:34:19.461Z,1021.27
2019-02-03T01:35:19.447Z,1021.25
2019-02-03T01:36:19.431Z,1021.24
2019-02-03T01:37:19.416Z,1021.25
2019-02-03T01:38:19.401Z,1021.25
2019-02-03T01:39:19.386Z,1021.21
2019-02-03T01:40:19.371Z,1021.22
2019-02-03T01:41:19.356Z,1021.2
2019-02-03T01:42:19.340Z,1021.25
2019-02-03T01:43:19.327Z,1021.27
2019-02-03T01:44:19.310Z,1021.25
2019-02-03T01:45:19.296Z,1021.27
2019-02-03T01:46:19.281Z,1021.27
2019-02-03T01:47:19.267Z,1021.23
2019-02-03T01:48:19.251Z,1021.22
2019-02-03T01:49:19.235Z,1021.21
2019-02-03T01:50:19.221Z,1021.18
2019-02-03T01:51:19.259Z,1021.16
2019-02-03T01:52:19.191Z,1021.19
2019-02-03T01:53:19.176Z,1021.23
2019-02-03T01:54:19.161Z,1021.25
2019-02-03T01:55:19.146Z,1021.23
2019-02-03T01:56:19.131Z,1021.19
2019-02-03T01:57:19.120Z,1021.21
2019-02-03T01:58:19.102Z,1021.2
2019-02-03T01:59:19.086Z,1021.23
2019-02-03T02:00:19.070Z,1021.25
2019-02-03T02:01:19.057Z,1021.22
2019-02-03T02:02:19.044Z,1021.26
2019-02-03T02:03:19.032Z,1021.24
2019-02-03T02:04:19.012Z,1021.24
2019-02-03T02:05:18.998Z,1021.23
2019-02-03T02:06:18.984Z,1021.24
2019-02-03T02:07:18.965Z,1021.21
2019-02-03T02:08:18.952Z,1021.23
2019-02-03T02:09:18.937Z,1021.23
2019-02-03T02:10:18.921Z,1021.24
2019-02-03T02:11:18.906Z,1021.25
2019-02-03T02:12:18.892Z,1021.3
2019-02-03T02:13:18.875Z,1021.28
2019-02-03T02:14:18.860Z,1021.26
2019-02-03T02:15:18.847Z,1021.22
2019-02-03T02:16:18.832Z,1021.2
2019-02-03T02:17:18.816Z,1021.25
2019-02-03T02:18:18.820Z,1021.28
2019-02-03T02:19:18.785Z,1021.24
2019-02-03T02:20:18.770Z,1021.24
2019-02-03T02:21:18.756Z,1021.23
2019-02-03T02:22:18.742Z,1021.22
2019-02-03T02:23:18.726Z,1021.27
2019-02-03T02:24:18.709Z,1021.26
2019-02-03T02:25:18.697Z,1021.24
2019-02-03T02:26:18.684Z,1021.25
2019-02-03T02:27:18.667Z,1021.24
2019-02-03T02:28:18.651Z,1021.32
2019-02-03T02:29:18.637Z,1021.35
2019-02-03T02:30:18.623Z,1021.39
2019-02-03T02:31:18.607Z,1021.42
2019-02-03T02:32:18.606Z,1021.47
2019-02-03T02:33:18.578Z,1021.49
2019-02-03T02:34:18.562Z,1021.52
2019-02-03T02:35:18.546Z,1021.58
2019-02-03T02:36:18.532Z,1021.59
2019-02-03T02:37:18.517Z,1021.6
2019-02-03T02:38:18.503Z,1021.63
2019-02-03T02:39:18.489Z,1021.64
2019-02-03T02:40:18.475Z,1021.64
2019-02-03T02:41:18.457Z,1021.66
2019-02-03T02:42:18.443Z,1021.65
2019-02-03T02:43:18.427Z,1021.7
2019-02-03T02:44:18.412Z,1021.69
2019-02-03T02:45:18.398Z,1021.64
2019-02-03T02:46:18.382Z,1021.64
2019-02-03T02:47:18.367Z,1021.67
2019-02-03T02:48:18.353Z,1021.71
2019-02-03T02:49:18.338Z,1021.68
2019-02-03T02:50:18.323Z,1021.67
2019-02-03T02:51:18.308Z,1021.7
2019-02-03T02:52:18.294Z,1021.69
2019-02-03T02:53:18.280Z,1021.67
2019-02-03T02:54:18.263Z,1021.7
2019-02-03T02:55:18.252Z,1021.71
2019-02-03T02:56:18.234Z,1021.72
2019-02-03T02:57:18.219Z,1021.77
2019-02-03T02:58:18.205Z,1021.79
2019-02-03T02:59:18.189Z,1021.83
2019-02-03T03:00:18.177Z,1021.83
2019-02-03T03:01:18.158Z,1021.84
2019-02-03T03:02:18.146Z,1021.87
2019-02-03T03:03:18.129Z,1021.84
2019-02-03T03:04:18.114Z,1021.82
2019-02-03T03:05:18.100Z,1021.85
2019-02-03T03:06:18.087Z,1021.88
2019-02-03T03:07:18.071Z,1021.9
2019-02-03T03:08:19.490Z,1021.99
2019-02-03T03:09:18.043Z,1021.99
2019-02-03T03:10:18.029Z,1022.04
2019-02-03T03:11:18.019Z,1022.07
2019-02-03T03:12:17.999Z,1022.07
2019-02-03T03:13:17.981Z,1022.1
2019-02-03T03:14:17.987Z,1022.14
2019-02-03T03:15:17.952Z,1022.14
2019-02-03T03:16:17.935Z,1022.21
2019-02-03T03:17:17.923Z,1022.24
2019-02-03T03:18:17.907Z,1022.23
2019-02-03T03:19:17.892Z,1022.28
2019-02-03T03:20:17.878Z,1022.27
2019-02-03T03:21:17.863Z,1022.3
2019-02-03T03:22:17.849Z,1022.34
2019-02-03T03:23:17.832Z,1022.31
2019-02-03T03:24:17.819Z,1022.32
2019-02-03T03:25:17.805Z,1022.34
2019-02-03T03:26:17.789Z,1022.38
2019-02-03T03:27:17.772Z,1022.43
2019-02-03T03:28:17.763Z,1022.47
2019-02-03T03:29:17.743Z,1022.47
2019-02-03T03:30:17.730Z,1022.46
2019-02-03T03:31:17.736Z,1022.43
2019-02-03T03:32:17.700Z,1022.42
2019-02-03T03:33:17.703Z,1022.45
2019-02-03T03:34:17.669Z,1022.49
2019-02-03T03:35:17.655Z,1022.49
2019-02-03T03:36:17.639Z,1022.52
2019-02-03T03:37:17.625Z,1022.54
2019-02-03T03:38:17.611Z,1022.57
2019-02-03T03:39:17.595Z,1022.56
2019-02-03T03:40:17.580Z,1022.61
2019-02-03T03:41:17.565Z,1022.61
2019-02-03T03:42:17.549Z,1022.62
2019-02-03T03:43:17.539Z,1022.64
2019-02-03T03:44:17.521Z,1022.62
2019-02-03T03:45:17.505Z,1022.68
2019-02-03T03:46:17.491Z,1022.67
2019-02-03T03:47:17.476Z,1022.68
2019-02-03T03:48:17.460Z,1022.64
2019-02-03T03:49:17.446Z,1022.58
2019-02-03T03:50:17.432Z,1022.58
2019-02-03T03:51:17.416Z,1022.58
2019-02-03T03:52:17.400Z,1022.59
2019-02-03T03:53:17.386Z,1022.57
2019-02-03T03:54:17.372Z,1022.56
2019-02-03T03:55:17.359Z,1022.58
2019-02-03T03:56:17.342Z,1022.59
2019-02-03T03:57:17.330Z,1022.58
2019-02-03T03:58:17.313Z,1022.63
2019-02-03T03:59:17.297Z,1022.61
2019-02-03T04:00:17.284Z,1022.66
2019-02-03T04:01:17.267Z,1022.66
2019-02-03T04:02:17.254Z,1022.67
2019-02-03T04:03:17.253Z,1022.7
2019-02-03T04:04:17.223Z,1022.68
2019-02-03T04:05:17.226Z,1022.71
2019-02-03T04:06:17.193Z,1022.73
2019-02-03T04:07:17.187Z,1022.75
2019-02-03T04:08:17.164Z,1022.78
2019-02-03T04:09:17.150Z,1022.83
2019-02-03T04:10:17.134Z,1022.85
2019-02-03T04:11:17.120Z,1022.88
2019-02-03T04:12:17.105Z,1022.86
2019-02-03T04:13:17.092Z,1022.89
2019-02-03T04:14:17.075Z,1022.9
2019-02-03T04:15:17.061Z,1022.89
2019-02-03T04:16:17.047Z,1022.9
2019-02-03T04:17:17.032Z,1022.89
2019-02-03T04:18:17.016Z,1022.87
2019-02-03T04:19:17.001Z,1022.87
2019-02-03T04:20:16.994Z,1022.88
2019-02-03T04:21:16.972Z,1022.88
2019-02-03T04:22:16.957Z,1022.9
2019-02-03T04:23:16.943Z,1022.91
2019-02-03T04:24:16.937Z,1022.9
2019-02-03T04:25:16.912Z,1022.9
2019-02-03T04:26:16.900Z,1022.9
2019-02-03T04:27:16.883Z,1022.91
2019-02-03T04:28:16.873Z,1022.9
2019-02-03T04:29:16.853Z,1022.9
2019-02-03T04:30:16.838Z,1022.91
2019-02-03T04:31:16.824Z,1022.92
2019-02-03T04:32:16.807Z,1022.92
2019-02-03T04:33:16.799Z,1022.95
2019-02-03T04:34:16.782Z,1022.96
2019-02-03T04:35:16.765Z,1022.92
2019-02-03T04:36:16.749Z,1022.9
2019-02-03T04:37:16.735Z,1022.92
2019-02-03T04:38:16.720Z,1022.96
2019-02-03T04:39:16.707Z,1022.92
2019-02-03T04:40:16.698Z,1022.92
2019-02-03T04:41:16.677Z,1022.96
2019-02-03T04:42:16.662Z,1023
2019-02-03T04:43:16.646Z,1022.96
2019-02-03T04:44:16.633Z,1022.95
2019-02-03T04:45:16.616Z,1022.97
2019-02-03T04:46:16.603Z,1022.94
2019-02-03T04:47:16.588Z,1022.97
2019-02-03T04:48:16.573Z,1023.03
2019-02-03T04:49:16.563Z,1023.01
2019-02-03T04:50:16.544Z,1023.03
2019-02-03T04:51:16.528Z,1023.07
2019-02-03T04:52:16.514Z,1023.08
2019-02-03T04:53:16.501Z,1023.09
2019-02-03T04:54:16.491Z,1023.11
2019-02-03T04:55:16.469Z,1023.13
2019-02-03T04:56:16.454Z,1023.17
2019-02-03T04:57:16.440Z,1023.16
2019-02-03T04:58:16.425Z,1023.2
2019-02-03T04:59:16.413Z,1023.23
2019-02-03T05:00:16.398Z,1023.26
2019-02-03T05:01:16.381Z,1023.28
2019-02-03T05:02:16.366Z,1023.3
2019-02-03T05:03:16.351Z,1023.3
2019-02-03T05:04:16.338Z,1023.29
2019-02-03T05:05:16.323Z,1023.31
2019-02-03T05:06:16.307Z,1023.28
2019-02-03T05:07:16.293Z,1023.27
2019-02-03T05:08:16.279Z,1023.29
2019-02-03T05:09:16.262Z,1023.31
2019-02-03T05:10:16.249Z,1023.3
2019-02-03T05:11:16.235Z,1023.3
2019-02-03T05:12:16.221Z,1023.25
2019-02-03T05:13:16.205Z,1023.28
2019-02-03T05:14:16.192Z,1023.28
2019-02-03T05:15:16.178Z,1023.27
2019-02-03T05:16:16.161Z,1023.3
2019-02-03T05:17:18.909Z,1023.23
2019-02-03T05:18:16.133Z,1023.31
2019-02-03T05:19:16.118Z,1023.27
2019-02-03T05:20:16.103Z,1023.29
2019-02-03T05:21:16.088Z,1023.32
2019-02-03T05:22:16.074Z,1023.35
2019-02-03T05:23:16.058Z,1023.36
2019-02-03T05:24:16.044Z,1023.38
2019-02-03T05:25:16.029Z,1023.43
2019-02-03T05:26:16.017Z,1023.48
2019-02-03T05:27:16.000Z,1023.56
2019-02-03T05:28:15.985Z,1023.57
2019-02-03T05:29:15.971Z,1023.58
2019-02-03T05:30:15.957Z,1023.62
2019-02-03T05:31:15.942Z,1023.62
2019-02-03T05:32:15.928Z,1023.68
2019-02-03T05:33:15.926Z,1023.64
2019-02-03T05:34:15.898Z,1023.64
2019-02-03T05:35:15.884Z,1023.62
2019-02-03T05:36:15.870Z,1023.64
2019-02-03T05:37:15.857Z,1023.62
2019-02-03T05:38:15.841Z,1023.64
2019-02-03T05:39:24.266Z,1023.63
2019-02-03T05:40:15.815Z,1023.62
2019-02-03T05:41:15.797Z,1023.64
2019-02-03T05:42:15.780Z,1023.62
2019-02-03T05:43:15.768Z,1023.63
2019-02-03T05:44:15.753Z,1023.65
2019-02-03T05:45:15.740Z,1023.66
2019-02-03T05:46:15.723Z,1023.69
2019-02-03T05:47:15.713Z,1023.74
2019-02-03T05:48:15.697Z,1023.74
2019-02-03T05:49:15.679Z,1023.8
2019-02-03T05:50:15.666Z,1023.79
2019-02-03T05:51:15.651Z,1023.8
2019-02-03T05:52:15.636Z,1023.83
2019-02-03T05:53:15.622Z,1023.8
2019-02-03T05:54:15.606Z,1023.81
2019-02-03T05:55:15.593Z,1023.87
2019-02-03T05:56:15.577Z,1023.86
2019-02-03T05:57:15.563Z,1023.83
2019-02-03T05:58:15.548Z,1023.9
2019-02-03T05:59:15.534Z,1023.82
2019-02-03T06:00:15.519Z,1023.84
2019-02-03T06:01:15.511Z,1023.91
2019-02-03T06:02:15.491Z,1023.92
2019-02-03T06:03:15.480Z,1023.89
2019-02-03T06:04:15.460Z,1023.87
2019-02-03T06:05:15.447Z,1023.89
2019-02-03T06:06:15.431Z,1023.86
2019-02-03T06:07:15.415Z,1023.84
2019-02-03T06:08:15.401Z,1023.8
2019-02-03T06:09:15.387Z,1023.79
2019-02-03T06:10:15.375Z,1023.81
2019-02-03T06:11:15.359Z,1023.78
2019-02-03T06:12:15.343Z,1023.82
2019-02-03T06:13:15.329Z,1023.82
2019-02-03T06:14:15.315Z,1023.84
2019-02-03T06:15:15.300Z,1023.84
2019-02-03T06:16:15.286Z,1023.85
2019-02-03T06:17:15.272Z,1023.89
2019-02-03T06:18:15.256Z,1023.96
2019-02-03T06:19:15.241Z,1023.97
2019-02-03T06:20:15.227Z,1024.02
2019-02-03T06:21:15.213Z,1024.04
2019-02-03T06:22:15.198Z,1024.08
2019-02-03T06:23:15.183Z,1024.07
2019-02-03T06:24:15.168Z,1024.12
2019-02-03T06:25:15.186Z,1024.1
2019-02-03T06:26:15.139Z,1024.08
2019-02-03T06:27:15.124Z,1024.08
2019-02-03T06:28:15.110Z,1024.08
2019-02-03T06:29:15.095Z,1024.11
2019-02-03T06:30:15.080Z,1024.11
2019-02-03T06:31:15.104Z,1024.11
2019-02-03T06:32:15.051Z,1024.12
2019-02-03T06:33:15.035Z,1024.12
2019-02-03T06:34:15.025Z,1024.16
2019-02-03T06:35:15.007Z,1024.14
2019-02-03T06:36:15.022Z,1024.16
2019-02-03T06:37:14.978Z,1024.2
2019-02-03T06:38:14.962Z,1024.19
2019-02-03T06:39:14.948Z,1024.21
2019-02-03T06:40:14.937Z,1024.18
2019-02-03T06:41:14.919Z,1024.21
2019-02-03T06:42:14.905Z,1024.21
2019-02-03T06:43:14.890Z,1024.22
2019-02-03T06:44:14.875Z,1024.24
2019-02-03T06:45:14.867Z,1024.21
2019-02-03T06:46:14.845Z,1024.29
2019-02-03T06:47:14.830Z,1024.29
2019-02-03T06:48:14.816Z,1024.26
2019-02-03T06:49:14.800Z,1024.3
2019-02-03T06:50:14.787Z,1024.27
2019-02-03T06:51:14.772Z,1024.27
2019-02-03T06:52:14.757Z,1024.28
2019-02-03T06:53:14.743Z,1024.33
2019-02-03T06:54:14.730Z,1024.35
2019-02-03T06:55:14.712Z,1024.36
2019-02-03T06:56:14.699Z,1024.41
2019-02-03T06:57:14.683Z,1024.48
2019-02-03T06:58:14.670Z,1024.45
2019-02-03T06:59:14.656Z,1024.44
2019-02-03T07:00:14.641Z,1024.47
2019-02-03T07:01:14.628Z,1024.45
2019-02-03T07:02:14.611Z,1024.5
2019-02-03T07:03:14.597Z,1024.52
2019-02-03T07:04:14.867Z,1024.56
2019-02-03T07:05:14.569Z,1024.6
2019-02-03T07:06:14.553Z,1024.61
2019-02-03T07:07:14.538Z,1024.61
2019-02-03T07:08:14.528Z,1024.62
2019-02-03T07:09:14.510Z,1024.62
2019-02-03T07:10:14.494Z,1024.6
2019-02-03T07:11:14.481Z,1024.56
2019-02-03T07:12:14.468Z,1024.6
2019-02-03T07:13:14.452Z,1024.63
2019-02-03T07:14:14.438Z,1024.7
2019-02-03T07:15:14.424Z,1024.77
2019-02-03T07:16:14.409Z,1024.8
2019-02-03T07:17:14.395Z,1024.8
2019-02-03T07:18:14.379Z,1024.84
2019-02-03T07:19:14.365Z,1024.84
2019-02-03T07:20:14.353Z,1024.89
2019-02-03T07:21:14.336Z,1024.89
2019-02-03T07:22:14.324Z,1024.9
2019-02-03T07:23:14.307Z,1024.91
2019-02-03T07:24:14.292Z,1024.95
2019-02-03T07:25:14.281Z,1024.93
2019-02-03T07:26:14.264Z,1024.94
2019-02-03T07:27:14.391Z,1024.93
2019-02-03T07:28:14.235Z,1024.93
2019-02-03T07:29:14.220Z,1024.96
2019-02-03T07:30:14.206Z,1025.03
2019-02-03T07:31:14.190Z,1025.05
2019-02-03T07:32:14.177Z,1025.03
2019-02-03T07:33:14.164Z,1025.04
2019-02-03T07:34:14.149Z,1025.02
2019-02-03T07:35:14.135Z,1024.97
2019-02-03T07:36:14.119Z,1024.99
2019-02-03T07:37:14.106Z,1024.97
2019-02-03T07:38:14.091Z,1025.03
2019-02-03T07:39:14.076Z,1025
2019-02-03T07:40:14.063Z,1025
2019-02-03T07:41:14.047Z,1024.99
2019-02-03T07:42:14.033Z,1024.96
2019-02-03T07:43:14.021Z,1024.97
2019-02-03T07:44:14.006Z,1024.98
2019-02-03T07:45:13.991Z,1025.05
2019-02-03T07:46:13.976Z,1025.05
2019-02-03T07:47:13.962Z,1025.02
2019-02-03T07:48:13.948Z,1025.04
2019-02-03T07:49:13.932Z,1024.98
2019-02-03T07:50:13.919Z,1024.95
2019-02-03T07:51:13.905Z,1024.99
2019-02-03T07:52:13.891Z,1025
2019-02-03T07:53:13.876Z,1024.96
2019-02-03T07:54:13.861Z,1024.97
2019-02-03T07:55:13.848Z,1024.92
2019-02-03T07:56:13.834Z,1024.91
2019-02-03T07:57:13.819Z,1024.92
2019-02-03T07:58:13.805Z,1024.92
2019-02-03T07:59:13.790Z,1024.86
2019-02-03T08:00:13.774Z,1024.86
2019-02-03T08:01:13.761Z,1024.88
2019-02-03T08:02:13.749Z,1024.93
2019-02-03T08:03:13.733Z,1024.92
2019-02-03T08:04:13.718Z,1024.96
2019-02-03T08:05:13.705Z,1025.01
2019-02-03T08:06:13.690Z,1025.04
2019-02-03T08:07:13.676Z,1025.07
2019-02-03T08:08:13.661Z,1025.11
2019-02-03T08:09:13.650Z,1025.12
2019-02-03T08:10:24.133Z,1025.1
2019-02-03T08:11:13.618Z,1025.09
2019-02-03T08:12:13.604Z,1025.05
2019-02-03T08:13:13.590Z,1025.03
2019-02-03T08:14:13.576Z,1025.03
2019-02-03T08:15:13.561Z,1025.1
2019-02-03T08:16:13.549Z,1025.14
2019-02-03T08:17:13.533Z,1025.26
2019-02-03T08:18:13.519Z,1025.36
2019-02-03T08:19:13.505Z,1025.42
2019-02-03T08:20:13.491Z,1025.45
2019-02-03T08:21:13.476Z,1025.51
2019-02-03T08:22:13.461Z,1025.61
2019-02-03T08:23:13.447Z,1025.67
2019-02-03T08:24:13.434Z,1025.71
2019-02-03T08:25:13.419Z,1025.74
2019-02-03T08:26:13.404Z,1025.73
2019-02-03T08:27:13.389Z,1025.72
2019-02-03T08:28:13.375Z,1025.67
2019-02-03T08:29:14.694Z,1025.65
2019-02-03T08:30:13.346Z,1025.61
2019-02-03T08:31:13.332Z,1025.66
2019-02-03T08:32:13.317Z,1025.64
2019-02-03T08:33:13.301Z,1025.62
2019-02-03T08:34:13.288Z,1025.64
2019-02-03T08:35:13.272Z,1025.68
2019-02-03T08:36:13.257Z,1025.66
2019-02-03T08:37:13.244Z,1025.66
2019-02-03T08:38:13.228Z,1025.66
2019-02-03T08:39:13.216Z,1025.63
2019-02-03T08:40:13.200Z,1025.65
2019-02-03T08:41:13.185Z,1025.68
2019-02-03T08:42:13.170Z,1025.65
2019-02-03T08:43:13.155Z,1025.64
2019-02-03T08:44:13.139Z,1025.75
2019-02-03T08:45:13.129Z,1025.81
2019-02-03T08:46:13.113Z,1025.87
2019-02-03T08:47:13.097Z,1025.93
2019-02-03T08:48:13.080Z,1025.94
2019-02-03T08:49:13.066Z,1026
2019-02-03T08:50:13.050Z,1026.01
2019-02-03T08:51:13.037Z,1026.04
2019-02-03T08:52:13.022Z,1026.11
2019-02-03T08:53:13.007Z,1026.14
2019-02-03T08:54:12.992Z,1026.16
2019-02-03T08:55:12.976Z,1026.2
2019-02-03T08:56:12.968Z,1026.25
2019-02-03T08:57:12.948Z,1026.3
2019-02-03T08:58:12.933Z,1026.32
2019-02-03T08:59:12.916Z,1026.4
2019-02-03T09:00:12.906Z,1026.45
2019-02-03T09:01:12.887Z,1026.53
2019-02-03T09:02:12.882Z,1026.55
2019-02-03T09:03:12.857Z,1026.54
2019-02-03T09:04:12.843Z,1026.56
2019-02-03T09:05:12.916Z,1026.58
2019-02-03T09:06:12.813Z,1026.55
2019-02-03T09:07:12.796Z,1026.65
2019-02-03T09:08:12.781Z,1026.71
2019-02-03T09:09:12.771Z,1026.77
2019-02-03T09:10:12.752Z,1026.79
2019-02-03T09:11:12.737Z,1026.84
2019-02-03T09:12:15.689Z,1026.84
2019-02-03T09:13:12.707Z,1026.83
2019-02-03T09:14:12.692Z,1026.87
2019-02-03T09:15:12.678Z,1026.88
2019-02-03T09:16:12.663Z,1026.9
2019-02-03T09:17:12.653Z,1026.93
2019-02-03T09:18:12.639Z,1026.92
2019-02-03T09:19:12.624Z,1026.9
2019-02-03T09:20:12.603Z,1026.9
2019-02-03T09:21:12.589Z,1026.94
2019-02-03T09:22:12.581Z,1026.91
2019-02-03T09:23:12.564Z,1026.9
2019-02-03T09:24:12.545Z,1026.91
2019-02-03T09:25:12.530Z,1026.97
2019-02-03T09:26:12.516Z,1026.94
2019-02-03T09:27:12.501Z,1026.97
2019-02-03T09:28:12.490Z,1027
2019-02-03T09:29:12.470Z,1027.02
2019-02-03T09:30:12.456Z,1027.02
2019-02-03T09:31:12.442Z,1027.05
2019-02-03T09:32:12.427Z,1027.02
2019-02-03T09:33:12.412Z,1027.1
2019-02-03T09:34:12.398Z,1027.1
2019-02-03T09:35:12.382Z,1027.14
2019-02-03T09:36:12.368Z,1027.09
2019-02-03T09:37:12.355Z,1027.09
2019-02-03T09:38:12.339Z,1027.18
2019-02-03T09:39:12.323Z,1027.23
2019-02-03T09:40:12.313Z,1027.27
2019-02-03T09:41:12.294Z,1027.34
2019-02-03T09:42:12.280Z,1027.4
2019-02-03T09:43:12.265Z,1027.41
2019-02-03T09:44:12.250Z,1027.43
2019-02-03T09:45:12.236Z,1027.46
2019-02-03T09:46:12.221Z,1027.44
2019-02-03T09:47:12.207Z,1027.43
2019-02-03T09:48:12.190Z,1027.41
2019-02-03T09:49:12.176Z,1027.45
2019-02-03T09:50:12.161Z,1027.41
2019-02-03T09:51:12.147Z,1027.38
2019-02-03T09:52:12.130Z,1027.45
2019-02-03T09:53:12.119Z,1027.5
2019-02-03T09:54:12.100Z,1027.51
2019-02-03T09:55:12.087Z,1027.51
2019-02-03T09:56:12.072Z,1027.55
2019-02-03T09:57:12.058Z,1027.53
2019-02-03T09:58:12.041Z,1027.51
2019-02-03T09:59:12.026Z,1027.52
2019-02-03T10:00:12.014Z,1027.49
2019-02-03T10:01:11.997Z,1027.44
2019-02-03T10:02:11.984Z,1027.47
2019-02-03T10:03:11.966Z,1027.47
2019-02-03T10:04:11.953Z,1027.44
2019-02-03T10:05:11.936Z,1027.43
2019-02-03T10:06:11.929Z,1027.44
2019-02-03T10:07:11.907Z,1027.42
2019-02-03T10:08:11.891Z,1027.37
2019-02-03T10:09:11.876Z,1027.36
2019-02-03T10:10:11.861Z,1027.3
2019-02-03T10:11:12.443Z,1027.33
2019-02-03T10:12:11.830Z,1027.28
2019-02-03T10:13:11.815Z,1027.3
2019-02-03T10:14:11.802Z,1027.36
2019-02-03T10:15:11.787Z,1027.29
2019-02-03T10:16:11.770Z,1027.35
2019-02-03T10:17:11.755Z,1027.32
2019-02-03T10:18:11.744Z,1027.42
2019-02-03T10:19:11.725Z,1027.43
2019-02-03T10:20:11.710Z,1027.53
2019-02-03T10:21:11.697Z,1027.55
2019-02-03T10:22:11.683Z,1027.61
2019-02-03T10:23:11.665Z,1027.66
2019-02-03T10:24:11.650Z,1027.64
2019-02-03T10:25:11.636Z,1027.64
2019-02-03T10:26:11.621Z,1027.66
2019-02-03T10:27:11.606Z,1027.67
2019-02-03T10:28:11.589Z,1027.66
2019-02-03T10:29:11.576Z,1027.64
2019-02-03T10:30:11.559Z,1027.63
2019-02-03T10:31:11.546Z,1027.6
2019-02-03T10:32:11.531Z,1027.63
2019-02-03T10:33:11.516Z,1027.6
2019-02-03T10:34:11.501Z,1027.65
2019-02-03T10:35:22.602Z,1027.63
2019-02-03T10:36:11.514Z,1027.62
2019-02-03T10:37:11.456Z,1027.61
2019-02-03T10:38:11.557Z,1027.65
2019-02-03T10:39:11.426Z,1027.54
2019-02-03T10:40:11.411Z,1027.55
2019-02-03T10:41:23.363Z,1027.51
2019-02-03T10:42:11.380Z,1027.54
2019-02-03T10:43:11.366Z,1027.5
2019-02-03T10:44:11.351Z,1027.52
2019-02-03T10:45:11.336Z,1027.53
2019-02-03T10:46:11.321Z,1027.5
2019-02-03T10:47:11.305Z,1027.43
2019-02-03T10:48:11.290Z,1027.39
2019-02-03T10:49:11.275Z,1027.36
2019-02-03T10:50:11.260Z,1027.33
2019-02-03T10:51:11.250Z,1027.34
2019-02-03T10:52:11.231Z,1027.25
2019-02-03T10:53:11.217Z,1027.2
2019-02-03T10:54:11.201Z,1027.21
2019-02-03T10:55:11.188Z,1027.19
2019-02-03T10:56:11.171Z,1027.26
2019-02-03T10:57:11.156Z,1027.24
2019-02-03T10:58:11.142Z,1027.2
2019-02-03T10:59:11.127Z,1027.3
2019-02-03T11:00:18.018Z,1027.33
2019-02-03T11:01:11.098Z,1027.41
2019-02-03T11:02:11.084Z,1027.33
2019-02-03T11:03:11.069Z,1027.43
2019-02-03T11:04:11.055Z,1027.4
2019-02-03T11:05:11.041Z,1027.32
2019-02-03T11:06:11.026Z,1027.32
2019-02-03T11:07:11.010Z,1027.29
2019-02-03T11:08:10.995Z,1027.29
2019-02-03T11:09:10.980Z,1027.28
2019-02-03T11:10:10.965Z,1027.28
2019-02-03T11:11:10.951Z,1027.3
2019-02-03T11:12:10.937Z,1027.31
2019-02-03T11:13:10.922Z,1027.38
2019-02-03T11:14:10.910Z,1027.32
2019-02-03T11:15:10.892Z,1027.43
2019-02-03T11:16:10.877Z,1027.41
2019-02-03T11:17:10.864Z,1027.46
2019-02-03T11:18:10.848Z,1027.39
2019-02-03T11:19:10.838Z,1027.4
2019-02-03T11:20:10.819Z,1027.47
2019-02-03T11:21:10.803Z,1027.5
2019-02-03T11:22:10.788Z,1027.55
2019-02-03T11:23:10.775Z,1027.46
2019-02-03T11:24:10.771Z,1027.46
2019-02-03T11:25:10.746Z,1027.55
2019-02-03T11:26:10.731Z,1027.54
2019-02-03T11:27:10.716Z,1027.63
2019-02-03T11:28:10.703Z,1027.68
2019-02-03T11:29:10.687Z,1027.72
2019-02-03T11:30:10.671Z,1027.8
2019-02-03T11:31:10.657Z,1027.74
2019-02-03T11:32:10.641Z,1027.75
2019-02-03T11:33:10.627Z,1027.77
2019-02-03T11:34:10.612Z,1027.82
2019-02-03T11:35:10.599Z,1027.79
2019-02-03T11:36:10.583Z,1027.82
2019-02-03T11:37:10.567Z,1027.79
2019-02-03T11:38:10.553Z,1027.82
2019-02-03T11:39:10.537Z,1027.82
2019-02-03T11:40:10.521Z,1027.87
2019-02-03T11:41:10.506Z,1027.8
2019-02-03T11:42:10.493Z,1027.88
2019-02-03T11:43:10.477Z,1027.87
2019-02-03T11:44:10.462Z,1027.88
2019-02-03T11:45:10.446Z,1027.86
2019-02-03T11:46:10.432Z,1027.8
2019-02-03T11:47:10.417Z,1027.77
2019-02-03T11:48:10.407Z,1027.74
2019-02-03T11:49:10.387Z,1027.73
2019-02-03T11:50:10.372Z,1027.71
2019-02-03T11:51:10.367Z,1027.71
2019-02-03T11:52:10.342Z,1027.75
2019-02-03T11:53:10.326Z,1027.71
2019-02-03T11:54:10.310Z,1027.74
2019-02-03T11:55:10.296Z,1027.71
2019-02-03T11:56:10.282Z,1027.75
2019-02-03T11:57:10.267Z,1027.75
2019-02-03T11:58:10.251Z,1027.8
2019-02-03T11:59:10.236Z,1027.78
2019-02-03T12:00:10.222Z,1027.76
2019-02-03T12:01:10.206Z,1027.82
2019-02-03T12:02:10.190Z,1027.79
2019-02-03T12:03:10.177Z,1027.84
2019-02-03T12:04:10.163Z,1027.85
2019-02-03T12:05:10.147Z,1027.89
2019-02-03T12:06:10.132Z,1027.95
2019-02-03T12:07:10.117Z,1027.97
2019-02-03T12:08:10.102Z,1028.02